createdAt,value
2024-02-08T00:01:48.299Z,69.78
2024-02-08T00:04:37.105Z,69.87
2024-02-08T00:07:24.097Z,70.09
2024-02-08T00:10:11.028Z,70.16
2024-02-08T00:12:58.092Z,70.35
2024-02-08T00:15:44.950Z,70.39
2024-02-08T00:18:32.009Z,70.60
2024-02-08T00:21:19.320Z,71.09
2024-02-08T00:24:06.469Z,71.10
2024-02-08T00:26:53.200Z,70.68
2024-02-08T00:29:44.892Z,70.54
2024-02-08T00:32:31.816Z,70.54
2024-02-08T00:35:19.829Z,70.28
2024-02-08T00:38:06.846Z,70.39
2024-02-08T00:40:53.861Z,70.34
2024-02-08T00:43:40.820Z,70.36
2024-02-08T00:46:28.037Z,70.58
2024-02-08T00:49:15.129Z,70.25
2024-02-08T00:52:02.051Z,70.58
2024-02-08T00:54:52.317Z,70.22
2024-02-08T00:57:39.905Z,70.30
2024-02-08T01:00:29.619Z,70.16
2024-02-08T01:03:16.644Z,70.22
2024-02-08T01:06:03.766Z,70.30
2024-02-08T01:08:52.380Z,70.43
2024-02-08T01:11:39.275Z,70.06
2024-02-08T01:14:26.116Z,70.24
2024-02-08T01:17:15.665Z,70.18
2024-02-08T01:20:08.080Z,70.33
2024-02-08T01:22:55.593Z,70.25
2024-02-08T01:25:42.886Z,70.49
2024-02-08T01:28:31.282Z,70.39
2024-02-08T01:31:18.195Z,70.06
2024-02-08T01:34:08.703Z,70.28
2024-02-08T01:36:55.695Z,69.90
2024-02-08T01:39:43.093Z,69.93
2024-02-08T01:42:30.259Z,70.29
2024-02-08T01:45:31.651Z,70.56
2024-02-08T01:48:18.749Z,70.52
2024-02-08T01:51:06.282Z,70.14
2024-02-08T01:53:53.452Z,70.51
2024-02-08T01:56:43.716Z,70.40
2024-02-08T01:59:33.054Z,70.50
2024-02-08T02:02:24.294Z,70.24
2024-02-08T02:05:19.498Z,70.45
2024-02-08T02:08:07.518Z,70.51
2024-02-08T02:10:54.302Z,70.60
2024-02-08T02:13:42.170Z,70.51
2024-02-08T02:16:29.247Z,70.30
2024-02-08T02:19:15.909Z,70.33
2024-02-08T02:22:02.707Z,70.43
2024-02-08T02:24:49.899Z,70.46
2024-02-08T02:27:41.368Z,70.40
2024-02-08T02:30:31.243Z,70.79
2024-02-08T02:33:20.663Z,70.76
2024-02-08T02:36:08.599Z,70.68
2024-02-08T02:38:55.301Z,70.48
2024-02-08T02:41:42.272Z,70.80
2024-02-08T02:44:29.225Z,70.70
2024-02-08T02:47:21.724Z,70.54
2024-02-08T02:50:09.141Z,70.50
2024-02-08T02:52:56.192Z,70.36
2024-02-08T02:55:43.301Z,70.45
2024-02-08T02:58:32.858Z,70.51
2024-02-08T03:01:20.719Z,70.23
2024-02-08T03:04:07.749Z,70.39
2024-02-08T03:06:54.505Z,70.61
2024-02-08T03:09:41.309Z,70.73
2024-02-08T03:12:28.269Z,70.75
2024-02-08T03:15:15.236Z,70.65
2024-02-08T03:18:02.181Z,70.57
2024-02-08T03:20:52.063Z,70.85
2024-02-08T03:23:39.762Z,70.83
2024-02-08T03:26:26.741Z,70.76
2024-02-08T03:29:14.785Z,70.81
2024-02-08T03:32:01.692Z,70.40
2024-02-08T03:34:48.487Z,70.51
2024-02-08T03:37:35.477Z,70.54
2024-02-08T03:40:27.642Z,70.51
2024-02-08T03:43:17.356Z,70.31
2024-02-08T03:46:06.342Z,70.46
2024-02-08T03:48:55.720Z,70.62
2024-02-08T03:51:43.334Z,71.15
2024-02-08T03:54:34.446Z,70.98
2024-02-08T03:57:25.141Z,71.02
2024-02-08T04:00:14.881Z,70.61
2024-02-08T04:03:07.701Z,70.63
2024-02-08T04:05:55.008Z,70.81
2024-02-08T04:09:04.456Z,70.32
2024-02-08T04:12:09.810Z,70.27
2024-02-08T04:15:15.176Z,70.28
2024-02-08T04:18:21.018Z,70.21
2024-02-08T04:21:26.975Z,70.44
2024-02-08T04:24:33.011Z,70.14
2024-02-08T04:27:38.710Z,70.26
2024-02-08T04:30:44.421Z,70.41
2024-02-08T04:33:50.079Z,70.43
2024-02-08T04:36:55.362Z,70.51
2024-02-08T04:40:01.435Z,70.47
2024-02-08T04:43:11.217Z,70.29
2024-02-08T04:46:16.970Z,70.21
2024-02-08T04:49:22.407Z,70.18
2024-02-08T04:52:27.883Z,70.06
2024-02-08T04:55:14.822Z,70.46
2024-02-08T04:58:27.811Z,70.22
2024-02-08T05:01:12.581Z,70.40
2024-02-08T05:04:02.476Z,70.10
2024-02-08T05:06:49.866Z,70.17
2024-02-08T05:09:37.086Z,70.30
2024-02-08T05:12:24.129Z,70.43
2024-02-08T05:15:14.489Z,70.18
2024-02-08T05:18:01.653Z,70.43
2024-02-08T05:20:49.489Z,70.38
2024-02-08T05:23:40.241Z,70.13
2024-02-08T05:26:27.665Z,70.16
2024-02-08T05:29:20.958Z,69.94
2024-02-08T05:32:11.614Z,69.93
2024-02-08T05:34:59.549Z,70.01
2024-02-08T05:37:48.291Z,69.94
2024-02-08T05:40:42.399Z,70.03
2024-02-08T05:43:29.643Z,70.04
2024-02-08T05:46:28.658Z,69.78
2024-02-08T05:49:16.509Z,69.75
2024-02-08T05:52:08.316Z,69.79
2024-02-08T05:54:56.525Z,69.69
2024-02-08T05:57:45.877Z,69.83
2024-02-08T06:00:47.150Z,69.85
2024-02-08T06:03:39.411Z,69.61
2024-02-08T06:06:36.026Z,69.55
2024-02-08T06:09:41.147Z,69.33
2024-02-08T06:12:53.743Z,69.52
2024-02-08T06:15:52.300Z,69.06
2024-02-08T06:18:42.017Z,69.22
2024-02-08T06:21:40.391Z,69.21
2024-02-08T06:24:27.353Z,69.28
2024-02-08T06:27:17.646Z,69.24
2024-02-08T06:30:10.068Z,69.35
2024-02-08T06:33:09.930Z,69.31
2024-02-08T06:36:00.370Z,69.22
2024-02-08T06:38:54.461Z,69.52
2024-02-08T06:42:00.004Z,69.74
2024-02-08T06:44:58.452Z,69.53
2024-02-08T06:48:00.431Z,69.69
2024-02-08T06:51:06.162Z,69.68
2024-02-08T06:54:12.196Z,69.60
2024-02-08T06:57:17.488Z,68.78
2024-02-08T07:00:23.331Z,69.05
2024-02-08T07:03:29.144Z,69.07
2024-02-08T07:06:35.115Z,68.99
2024-02-08T07:09:40.782Z,69.07
2024-02-08T07:12:46.510Z,68.97
2024-02-08T07:15:52.031Z,69.18
2024-02-08T07:19:06.674Z,69.30
2024-02-08T07:22:13.920Z,69.76
2024-02-08T07:25:19.584Z,69.56
2024-02-08T07:28:25.517Z,69.62
2024-02-08T07:31:30.888Z,69.17
2024-02-08T07:34:36.678Z,69.10
2024-02-08T07:37:29.155Z,68.82
2024-02-08T07:40:25.778Z,69.10
2024-02-08T07:43:16.635Z,68.62
2024-02-08T07:46:07.002Z,68.81
2024-02-08T07:48:59.991Z,68.67
2024-02-08T07:51:51.967Z,68.88
2024-02-08T07:54:40.756Z,69.26
2024-02-08T07:57:33.026Z,69.23
2024-02-08T08:00:35.747Z,69.03
2024-02-08T08:03:25.245Z,69.36
2024-02-08T08:06:16.374Z,69.39
2024-02-08T08:09:20.864Z,68.69
2024-02-08T08:12:08.997Z,67.88
2024-02-08T08:15:18.242Z,67.90
2024-02-08T08:18:17.998Z,68.07
2024-02-08T08:21:05.660Z,68.17
2024-02-08T08:24:01.860Z,67.93
2024-02-08T08:26:52.978Z,68.11
2024-02-08T08:29:45.808Z,68.28
2024-02-08T08:32:33.514Z,67.82
2024-02-08T08:35:46.961Z,66.78
2024-02-08T08:38:38.655Z,66.58
2024-02-08T08:41:25.838Z,66.09
2024-02-08T08:44:12.923Z,65.82
2024-02-08T08:47:02.515Z,65.59
2024-02-08T08:49:52.607Z,65.41
2024-02-08T08:52:49.014Z,65.17
2024-02-08T08:55:41.320Z,64.52
2024-02-08T08:58:29.436Z,65.14
2024-02-08T09:01:20.456Z,65.10
2024-02-08T09:04:11.903Z,64.80
2024-02-08T09:07:10.241Z,64.67
2024-02-08T09:10:03.048Z,64.54
2024-02-08T09:13:01.617Z,64.48
2024-02-08T09:16:18.013Z,64.11
2024-02-08T09:19:13.721Z,64.27
2024-02-08T09:22:03.244Z,63.80
2024-02-08T09:24:52.122Z,64.30
2024-02-08T09:27:40.003Z,64.94
2024-02-08T09:30:53.929Z,65.52
2024-02-08T09:34:02.592Z,65.33
2024-02-08T09:36:50.301Z,64.35
2024-02-08T09:40:00.644Z,64.66
2024-02-08T09:43:11.073Z,64.83
2024-02-08T09:46:07.184Z,64.34
2024-02-08T09:48:54.368Z,64.25
2024-02-08T09:52:07.939Z,64.96
2024-02-08T09:54:57.589Z,64.81
2024-02-08T09:57:47.870Z,65.30
2024-02-08T10:00:55.131Z,64.99
2024-02-08T10:03:46.363Z,64.83
2024-02-08T10:06:43.312Z,64.29
2024-02-08T10:09:42.661Z,64.43
2024-02-08T10:12:42.364Z,64.39
2024-02-08T10:15:57.847Z,63.41
2024-02-08T10:18:58.588Z,62.96
2024-02-08T10:21:45.992Z,63.10
2024-02-08T10:24:51.150Z,63.69
2024-02-08T10:27:37.830Z,63.16
2024-02-08T10:30:26.889Z,63.30
2024-02-08T10:33:16.849Z,62.65
2024-02-08T10:36:23.152Z,63.15
2024-02-08T10:39:28.113Z,63.55
2024-02-08T10:42:15.566Z,63.18
2024-02-08T10:45:07.092Z,63.38
2024-02-08T10:47:56.513Z,63.39
2024-02-08T10:50:45.966Z,63.01
2024-02-08T10:53:45.520Z,62.58
2024-02-08T10:56:42.704Z,62.36
2024-02-08T10:59:49.796Z,62.36
2024-02-08T11:02:42.426Z,62.99
2024-02-08T11:05:30.586Z,62.43
2024-02-08T11:08:26.394Z,62.40
2024-02-08T11:11:22.521Z,62.83
2024-02-08T11:14:10.490Z,62.30
2024-02-08T11:17:01.892Z,62.16
2024-02-08T11:19:59.603Z,61.35
2024-02-08T11:22:58.797Z,61.72
2024-02-08T11:25:46.603Z,61.82
2024-02-08T11:28:46.038Z,61.81
2024-02-08T11:31:43.337Z,61.62
2024-02-08T11:34:46.656Z,61.73
2024-02-08T11:37:39.933Z,61.96
2024-02-08T11:40:30.008Z,61.46
2024-02-08T11:43:21.303Z,61.44
2024-02-08T11:46:20.386Z,61.54
2024-02-08T11:49:16.751Z,61.76
2024-02-08T11:52:08.742Z,62.29
2024-02-08T11:55:15.292Z,61.18
2024-02-08T11:58:07.280Z,61.90
2024-02-08T12:00:54.636Z,62.55
2024-02-08T12:03:43.262Z,62.97
2024-02-08T12:06:35.269Z,63.36
2024-02-08T12:09:31.714Z,64.17
2024-02-08T12:12:20.734Z,64.49
2024-02-08T12:15:10.052Z,64.16
2024-02-08T12:18:10.025Z,64.68
2024-02-08T12:20:58.761Z,64.66
2024-02-08T12:23:54.521Z,64.94
2024-02-08T12:26:41.456Z,64.91
2024-02-08T12:29:31.384Z,65.05
2024-02-08T12:32:18.488Z,65.35
2024-02-08T12:35:15.114Z,65.54
2024-02-08T12:38:04.547Z,65.52
2024-02-08T12:40:51.538Z,65.62
2024-02-08T12:43:39.106Z,65.30
2024-02-08T12:46:27.583Z,65.28
2024-02-08T12:49:16.911Z,65.59
2024-02-08T12:52:05.275Z,66.06
2024-02-08T12:54:55.933Z,66.28
2024-02-08T12:57:43.185Z,66.51
2024-02-08T13:00:35.759Z,66.94
2024-02-08T13:03:25.811Z,66.80
2024-02-08T13:06:13.754Z,66.65
2024-02-08T13:09:27.704Z,66.87
2024-02-08T13:12:16.682Z,66.54
2024-02-08T13:15:07.214Z,66.71
2024-02-08T13:17:58.064Z,66.74
2024-02-08T13:20:45.758Z,66.77
2024-02-08T13:23:35.750Z,66.93
2024-02-08T13:26:30.211Z,67.43
2024-02-08T13:29:27.698Z,66.92
2024-02-08T13:32:14.477Z,67.06
2024-02-08T13:35:04.504Z,67.52
2024-02-08T13:37:54.416Z,67.88
2024-02-08T13:40:46.333Z,67.47
2024-02-08T13:43:34.506Z,67.90
2024-02-08T13:46:23.050Z,68.40
2024-02-08T13:49:09.893Z,68.52
2024-02-08T13:51:57.678Z,69.14
2024-02-08T13:54:47.104Z,69.36
2024-02-08T13:57:41.085Z,69.32
2024-02-08T14:00:28.794Z,69.96
2024-02-08T14:03:20.457Z,70.24
2024-02-08T14:06:11.406Z,70.31
2024-02-08T14:09:18.539Z,70.37
2024-02-08T14:12:09.851Z,70.77
2024-02-08T14:14:59.028Z,70.57
2024-02-08T14:17:55.714Z,70.98
2024-02-08T14:20:44.596Z,71.41
2024-02-08T14:23:32.258Z,71.36
2024-02-08T14:26:19.130Z,71.37
2024-02-08T14:29:07.210Z,72.05
2024-02-08T14:31:54.463Z,72.51
2024-02-08T14:34:42.314Z,72.31
2024-02-08T14:37:30.048Z,72.29
2024-02-08T14:40:16.836Z,72.46
2024-02-08T14:43:07.583Z,72.53
2024-02-08T14:45:55.726Z,72.52
2024-02-08T14:48:42.585Z,72.97
2024-02-08T14:51:37.698Z,73.27
2024-02-08T14:54:27.312Z,73.03
2024-02-08T14:57:20.993Z,72.69
2024-02-08T15:00:27.817Z,72.89
2024-02-08T15:03:23.739Z,73.09
2024-02-08T15:06:36.921Z,72.92
2024-02-08T15:09:35.262Z,72.73
2024-02-08T15:12:27.954Z,72.29
2024-02-08T15:15:20.497Z,72.53
2024-02-08T15:18:14.481Z,72.36
2024-02-08T15:21:05.860Z,73.01
2024-02-08T15:24:12.318Z,72.56
2024-02-08T15:27:09.539Z,73.00
2024-02-08T15:30:12.162Z,72.79
2024-02-08T15:32:59.310Z,73.21
2024-02-08T15:35:53.721Z,73.21
2024-02-08T15:39:02.242Z,73.22
2024-02-08T15:41:56.891Z,73.75
2024-02-08T15:45:09.629Z,73.85
2024-02-08T15:47:56.952Z,74.18
2024-02-08T15:50:44.854Z,74.21
2024-02-08T15:53:37.943Z,74.03
2024-02-08T15:56:27.071Z,73.92
2024-02-08T15:59:14.154Z,74.02
2024-02-08T16:02:06.409Z,74.59
2024-02-08T16:04:54.616Z,74.77
2024-02-08T16:07:44.106Z,74.77
2024-02-08T16:10:33.404Z,75.05
2024-02-08T16:13:24.746Z,74.95
2024-02-08T16:16:11.408Z,75.05
2024-02-08T16:19:03.441Z,75.19
2024-02-08T16:21:50.989Z,74.84
2024-02-08T16:24:43.155Z,74.99
2024-02-08T16:27:30.862Z,74.89
2024-02-08T16:30:29.993Z,74.86
2024-02-08T16:33:21.865Z,75.56
2024-02-08T16:36:33.265Z,75.09
2024-02-08T16:39:20.773Z,75.21
2024-02-08T16:42:19.531Z,75.22
2024-02-08T16:45:19.196Z,75.03
2024-02-08T16:48:15.916Z,75.33
2024-02-08T16:51:25.138Z,75.80
2024-02-08T16:54:21.285Z,75.67
2024-02-08T16:57:09.122Z,75.95
2024-02-08T16:59:55.865Z,75.81
2024-02-08T17:02:51.135Z,75.76
2024-02-08T17:05:51.035Z,75.75
2024-02-08T17:08:51.739Z,74.92
2024-02-08T17:11:41.805Z,75.93
2024-02-08T17:14:37.851Z,76.25
2024-02-08T17:17:36.630Z,75.11
2024-02-08T17:20:44.272Z,75.42
2024-02-08T17:23:43.106Z,75.74
2024-02-08T17:26:52.467Z,75.91
2024-02-08T17:29:44.943Z,76.06
2024-02-08T17:32:44.451Z,76.10
2024-02-08T17:35:35.949Z,76.20
2024-02-08T17:38:30.315Z,76.14
2024-02-08T17:41:20.162Z,76.30
2024-02-08T17:44:07.402Z,76.65
2024-02-08T17:46:54.434Z,76.75
2024-02-08T17:49:41.589Z,77.08
2024-02-08T17:52:28.785Z,77.25
2024-02-08T17:55:23.146Z,77.38
2024-02-08T17:58:14.279Z,77.63
2024-02-08T18:01:06.585Z,77.62
2024-02-08T18:03:54.071Z,78.00
2024-02-08T18:06:41.192Z,78.13
2024-02-08T18:09:57.155Z,77.98
2024-02-08T18:12:44.907Z,78.33
2024-02-08T18:15:36.447Z,78.26
2024-02-08T18:18:24.442Z,78.26
2024-02-08T18:21:17.336Z,78.13
2024-02-08T18:24:07.574Z,78.20
2024-02-08T18:26:56.682Z,78.04
2024-02-08T18:29:46.290Z,78.28
2024-02-08T18:32:36.279Z,78.30
2024-02-08T18:35:25.038Z,78.47
2024-02-08T18:38:14.021Z,78.40
2024-02-08T18:41:07.676Z,78.41
2024-02-08T18:43:56.364Z,78.47
2024-02-08T18:46:43.400Z,78.42
2024-02-08T18:49:32.231Z,78.43
2024-02-08T18:52:19.797Z,78.47
2024-02-08T18:55:11.096Z,78.48
2024-02-08T18:58:02.565Z,78.56
2024-02-08T19:00:56.464Z,78.75
2024-02-08T19:03:47.742Z,78.00
2024-02-08T19:06:40.779Z,78.26
2024-02-08T19:09:32.404Z,78.47
2024-02-08T19:12:19.500Z,77.95
2024-02-08T19:15:07.947Z,78.05
2024-02-08T19:18:03.407Z,78.22
2024-02-08T19:20:57.348Z,77.82
2024-02-08T19:23:44.737Z,77.97
2024-02-08T19:26:36.979Z,78.03
2024-02-08T19:29:26.840Z,78.15
2024-02-08T19:32:20.756Z,78.60
2024-02-08T19:35:11.685Z,78.64
2024-02-08T19:38:05.248Z,79.11
2024-02-08T19:40:54.954Z,79.08
2024-02-08T19:43:43.125Z,78.75
2024-02-08T19:46:30.247Z,78.88
2024-02-08T19:49:17.271Z,78.92
2024-02-08T19:52:08.693Z,79.08
2024-02-08T19:54:58.439Z,79.39
2024-02-08T19:57:49.159Z,79.48
2024-02-08T20:00:39.184Z,79.39
2024-02-08T20:03:28.319Z,79.22
2024-02-08T20:06:22.456Z,79.21
2024-02-08T20:09:13.511Z,79.16
2024-02-08T20:12:00.716Z,78.84
2024-02-08T20:14:49.036Z,78.74
2024-02-08T20:17:37.892Z,79.02
2024-02-08T20:20:25.084Z,79.05
2024-02-08T20:23:14.966Z,78.75
2024-02-08T20:26:02.800Z,79.16
2024-02-08T20:28:49.573Z,78.66
2024-02-08T20:31:36.840Z,78.86
2024-02-08T20:34:24.057Z,78.64
2024-02-08T20:37:15.301Z,78.79
2024-02-08T20:40:04.099Z,79.23
2024-02-08T20:42:55.118Z,78.97
2024-02-08T20:45:50.836Z,79.46
2024-02-08T20:48:41.273Z,78.69
2024-02-08T20:51:29.944Z,78.77
2024-02-08T20:54:17.093Z,79.00
2024-02-08T20:57:11.305Z,79.21
2024-02-08T20:59:58.305Z,78.42
2024-02-08T21:02:48.341Z,78.98
2024-02-08T21:05:38.310Z,79.16
2024-02-08T21:08:26.778Z,79.17
2024-02-08T21:11:13.863Z,78.23
2024-02-08T21:14:00.848Z,78.14
2024-02-08T21:16:50.646Z,78.46
2024-02-08T21:19:43.369Z,78.62
2024-02-08T21:22:30.219Z,78.12
2024-02-08T21:25:20.297Z,78.21
2024-02-08T21:28:15.097Z,77.59
2024-02-08T21:31:03.034Z,77.35
2024-02-08T21:33:53.411Z,77.88
2024-02-08T21:36:43.867Z,77.92
2024-02-08T21:39:33.205Z,77.72
2024-02-08T21:42:21.249Z,77.17
2024-02-08T21:45:13.523Z,77.25
2024-02-08T21:48:00.512Z,77.82
2024-02-08T21:50:53.291Z,77.68
2024-02-08T21:53:40.430Z,77.42
2024-02-08T21:56:30.483Z,77.51
2024-02-08T21:59:19.596Z,77.84
2024-02-08T22:02:09.567Z,77.80
2024-02-08T22:04:56.542Z,77.87
2024-02-08T22:07:48.953Z,77.11
2024-02-08T22:10:35.983Z,77.48
2024-02-08T22:13:24.531Z,77.32
2024-02-08T22:16:20.429Z,77.14
2024-02-08T22:19:07.378Z,76.89
2024-02-08T22:21:54.388Z,77.27
2024-02-08T22:24:43.307Z,77.01
2024-02-08T22:27:30.162Z,76.99
2024-02-08T22:30:17.405Z,76.73
2024-02-08T22:33:07.789Z,76.66
2024-02-08T22:35:54.744Z,76.08
2024-02-08T22:38:41.969Z,76.01
2024-02-08T22:41:29.793Z,76.28
2024-02-08T22:44:17.176Z,75.85
2024-02-08T22:47:07.495Z,76.02
2024-02-08T22:49:55.023Z,76.86
2024-02-08T22:52:45.576Z,76.24
2024-02-08T22:55:32.876Z,76.32
2024-02-08T22:58:21.918Z,76.73
2024-02-08T23:01:35.698Z,76.69
2024-02-08T23:04:24.428Z,76.58
2024-02-08T23:07:11.903Z,76.78
2024-02-08T23:09:58.795Z,76.39
2024-02-08T23:12:51.492Z,75.73
2024-02-08T23:15:38.819Z,76.25
2024-02-08T23:18:26.272Z,76.94
2024-02-08T23:21:13.001Z,76.96
2024-02-08T23:24:03.535Z,76.78
2024-02-08T23:26:50.687Z,76.82
2024-02-08T23:29:37.292Z,77.29
2024-02-08T23:32:26.344Z,77.19
2024-02-08T23:35:14.000Z,77.36
2024-02-08T23:38:01.268Z,77.83
2024-02-08T23:40:49.349Z,77.89
2024-02-08T23:43:39.721Z,78.08
2024-02-08T23:46:26.908Z,78.63
2024-02-08T23:49:13.831Z,79.01
2024-02-08T23:52:00.651Z,79.20
2024-02-08T23:54:49.199Z,79.31
2024-02-08T23:57:37.470Z,79.49
